createdAt,value
2022-08-03T00:01:29.014Z,18.82
2022-08-03T00:03:55.405Z,18.88
2022-08-03T00:06:21.698Z,18.76
2022-08-03T00:08:48.167Z,18.93
2022-08-03T00:11:14.515Z,18.80
2022-08-03T00:13:40.918Z,18.80
2022-08-03T00:16:07.327Z,18.75
2022-08-03T00:18:33.621Z,18.82
2022-08-03T00:20:59.937Z,18.79
2022-08-03T00:23:29.364Z,18.62
2022-08-03T00:26:12.518Z,18.41
2022-08-03T00:28:38.807Z,18.38
2022-08-03T00:31:05.101Z,18.43
2022-08-03T00:33:32.271Z,18.46
2022-08-03T00:36:18.551Z,18.55
2022-08-03T00:38:44.842Z,18.69
2022-08-03T00:41:11.161Z,18.52
2022-08-03T00:43:42.191Z,18.42
2022-08-03T00:46:08.503Z,18.34
2022-08-03T00:48:34.805Z,18.31
2022-08-03T00:51:01.282Z,18.35
2022-08-03T00:53:28.298Z,18.07
2022-08-03T00:55:54.753Z,17.90
2022-08-03T00:58:21.433Z,17.78
2022-08-03T01:00:47.851Z,17.81
2022-08-03T01:03:16.912Z,17.90
2022-08-03T01:05:52.307Z,17.99
2022-08-03T01:08:22.577Z,17.92
2022-08-03T01:11:07.758Z,17.88
2022-08-03T01:14:03.626Z,17.90
2022-08-03T01:16:49.125Z,17.93
2022-08-03T01:19:34.466Z,17.80
2022-08-03T01:22:19.725Z,17.81
2022-08-03T01:25:06.074Z,17.81
2022-08-03T01:27:51.302Z,17.79
2022-08-03T01:30:17.698Z,17.62
2022-08-03T01:32:53.391Z,17.78
2022-08-03T01:35:46.184Z,17.76
2022-08-03T01:38:14.211Z,17.78
2022-08-03T01:40:41.705Z,17.85
2022-08-03T01:43:10.893Z,17.93
2022-08-03T01:45:37.543Z,17.69
2022-08-03T01:48:08.058Z,17.72
2022-08-03T01:50:34.957Z,17.68
2022-08-03T01:53:01.773Z,17.69
2022-08-03T01:55:29.277Z,17.55
2022-08-03T01:58:08.151Z,17.57
2022-08-03T02:00:38.459Z,17.51
2022-08-03T02:03:05.848Z,17.52
2022-08-03T02:05:32.696Z,17.52
2022-08-03T02:08:00.502Z,17.48
2022-08-03T02:10:34.851Z,17.56
2022-08-03T02:13:02.921Z,17.50
2022-08-03T02:15:29.962Z,17.45
2022-08-03T02:17:57.512Z,17.49
2022-08-03T02:20:24.885Z,17.48
2022-08-03T02:22:51.253Z,17.51
2022-08-03T02:25:17.680Z,17.50
2022-08-03T02:28:06.434Z,17.54
2022-08-03T02:30:36.992Z,17.63
2022-08-03T02:33:04.109Z,17.54
2022-08-03T02:35:30.779Z,17.42
2022-08-03T02:37:59.633Z,17.40
2022-08-03T02:40:27.820Z,17.39
2022-08-03T02:42:55.499Z,17.48
2022-08-03T02:45:23.788Z,17.51
2022-08-03T02:47:54.360Z,17.60
2022-08-03T02:50:22.105Z,17.37
2022-08-03T02:52:49.540Z,17.29
2022-08-03T02:55:16.222Z,17.15
2022-08-03T02:57:43.314Z,17.15
2022-08-03T03:00:12.510Z,17.17
2022-08-03T03:02:40.098Z,17.34
2022-08-03T03:05:55.047Z,17.37
2022-08-03T03:07:57.138Z,17.24
2022-08-03T03:10:24.725Z,17.10
2022-08-03T03:12:53.613Z,16.94
2022-08-03T03:15:20.001Z,16.95
2022-08-03T03:17:47.259Z,17.09
2022-08-03T03:20:14.671Z,17.09
2022-08-03T03:22:41.274Z,17.04
2022-08-03T03:25:11.755Z,16.85
2022-08-03T03:27:38.225Z,16.88
2022-08-03T03:30:05.091Z,16.91
2022-08-03T03:32:33.967Z,16.82
2022-08-03T03:35:02.459Z,16.83
2022-08-03T03:37:29.101Z,16.85
2022-08-03T03:39:56.228Z,17.00
2022-08-03T03:42:23.336Z,16.83
2022-08-03T03:44:49.740Z,16.99
2022-08-03T03:47:17.111Z,16.88
2022-08-03T03:49:59.215Z,16.82
2022-08-03T03:52:25.602Z,16.82
2022-08-03T03:54:52.089Z,16.85
2022-08-03T03:57:18.457Z,16.86
2022-08-03T03:59:44.815Z,16.90
2022-08-03T04:02:11.931Z,16.95
2022-08-03T04:04:57.270Z,16.92
2022-08-03T04:07:44.067Z,16.96
2022-08-03T04:10:31.510Z,17.03
2022-08-03T04:12:59.066Z,17.08
2022-08-03T04:15:26.461Z,17.06
2022-08-03T04:17:53.704Z,17.07
2022-08-03T04:20:20.962Z,17.13
2022-08-03T04:22:49.507Z,17.21
2022-08-03T04:25:19.520Z,17.29
2022-08-03T04:28:29.674Z,17.34
2022-08-03T04:30:36.039Z,17.39
2022-08-03T04:33:06.048Z,17.50
2022-08-03T04:36:00.945Z,17.58
2022-08-03T04:38:20.154Z,17.70
2022-08-03T04:40:46.731Z,17.82
2022-08-03T04:43:14.937Z,17.90
2022-08-03T04:45:42.256Z,18.03
2022-08-03T04:48:13.670Z,18.30
2022-08-03T04:50:40.749Z,18.71
2022-08-03T04:53:07.664Z,19.28
2022-08-03T04:55:35.131Z,19.49
2022-08-03T04:58:23.363Z,19.70
2022-08-03T05:00:52.291Z,20.09
2022-08-03T05:03:24.325Z,20.24
2022-08-03T05:06:11.091Z,20.46
2022-08-03T05:08:46.411Z,20.64
2022-08-03T05:11:15.796Z,20.81
2022-08-03T05:13:44.987Z,20.99
2022-08-03T05:16:12.526Z,21.11
2022-08-03T05:18:39.437Z,21.30
2022-08-03T05:21:08.792Z,21.47
2022-08-03T05:23:37.982Z,21.52
2022-08-03T05:26:15.869Z,21.81
2022-08-03T05:28:50.836Z,21.87
2022-08-03T05:31:21.239Z,22.15
2022-08-03T05:33:49.005Z,22.12
2022-08-03T05:36:16.047Z,22.46
2022-08-03T05:38:42.839Z,22.50
2022-08-03T05:41:21.432Z,22.51
2022-08-03T05:43:50.960Z,22.84
2022-08-03T05:46:17.254Z,22.79
2022-08-03T05:48:43.557Z,22.89
2022-08-03T05:51:11.973Z,23.00
2022-08-03T05:53:38.609Z,23.23
2022-08-03T05:56:14.060Z,23.19
2022-08-03T05:58:45.887Z,23.26
2022-08-03T06:01:12.422Z,23.31
2022-08-03T06:03:38.811Z,23.51
2022-08-03T06:06:05.149Z,23.29
2022-08-03T06:08:31.482Z,23.66
2022-08-03T06:10:57.842Z,23.72
2022-08-03T06:13:24.146Z,23.93
2022-08-03T06:15:50.443Z,23.90
2022-08-03T06:18:16.729Z,23.98
2022-08-03T06:20:43.315Z,24.24
2022-08-03T06:23:16.237Z,24.22
2022-08-03T06:25:44.311Z,24.49
2022-08-03T06:28:19.150Z,24.56
2022-08-03T06:30:55.353Z,24.61
2022-08-03T06:33:21.709Z,24.72
2022-08-03T06:35:48.093Z,24.99
2022-08-03T06:38:14.431Z,24.85
2022-08-03T06:40:41.054Z,25.03
2022-08-03T06:43:12.333Z,24.99
2022-08-03T06:45:39.171Z,24.93
2022-08-03T06:48:06.652Z,25.02
2022-08-03T06:50:33.776Z,25.25
2022-08-03T06:53:00.496Z,25.38
2022-08-03T06:55:26.843Z,25.34
2022-08-03T06:57:53.386Z,25.44
2022-08-03T07:00:19.796Z,25.49
2022-08-03T07:02:46.328Z,25.74
2022-08-03T07:05:13.684Z,25.77
2022-08-03T07:07:40.538Z,25.93
2022-08-03T07:10:07.187Z,26.15
2022-08-03T07:12:33.910Z,26.22
2022-08-03T07:15:02.571Z,26.45
2022-08-03T07:17:30.879Z,26.32
2022-08-03T07:19:57.658Z,26.40
2022-08-03T07:22:24.066Z,26.75
2022-08-03T07:24:50.355Z,26.63
2022-08-03T07:27:16.734Z,26.64
2022-08-03T07:29:43.044Z,26.83
2022-08-03T07:32:09.393Z,27.03
2022-08-03T07:34:35.720Z,27.26
2022-08-03T07:37:02.114Z,27.26
2022-08-03T07:39:28.407Z,27.12
2022-08-03T07:41:54.744Z,27.17
2022-08-03T07:44:21.056Z,27.37
2022-08-03T07:46:47.717Z,27.60
2022-08-03T07:49:14.064Z,27.31
2022-08-03T07:51:40.559Z,27.77
2022-08-03T07:54:07.744Z,27.82
2022-08-03T07:56:34.059Z,27.87
2022-08-03T07:59:00.410Z,28.04
2022-08-03T08:01:26.785Z,27.88
2022-08-03T08:03:53.815Z,28.49
2022-08-03T08:06:20.383Z,28.70
2022-08-03T08:08:46.747Z,28.70
2022-08-03T08:11:13.189Z,28.64
2022-08-03T08:13:39.474Z,28.71
2022-08-03T08:16:06.463Z,28.39
2022-08-03T08:18:32.858Z,28.26
2022-08-03T08:20:59.228Z,28.33
2022-08-03T08:23:42.598Z,28.77
2022-08-03T08:26:10.769Z,28.44
2022-08-03T08:28:37.154Z,28.70
2022-08-03T08:31:03.582Z,29.04
2022-08-03T08:36:16.335Z,29.17
2022-08-03T08:38:44.449Z,29.09
2022-08-03T08:41:11.257Z,28.78
2022-08-03T08:43:37.653Z,29.13
2022-08-03T08:46:05.504Z,29.70
2022-08-03T08:48:32.033Z,29.81
2022-08-03T08:50:58.866Z,30.38
2022-08-03T08:53:27.597Z,30.37
2022-08-03T08:55:58.438Z,30.45
2022-08-03T08:58:28.430Z,30.57
2022-08-03T09:00:54.975Z,30.11
2022-08-03T09:03:29.050Z,30.40
2022-08-03T09:05:58.187Z,30.13
2022-08-03T09:08:24.567Z,29.94
2022-08-03T09:10:50.866Z,29.81
2022-08-03T09:13:17.342Z,30.06
2022-08-03T09:15:57.142Z,30.84
2022-08-03T09:18:32.843Z,30.68
2022-08-03T09:21:31.171Z,31.27
2022-08-03T09:24:02.663Z,31.12
2022-08-03T09:26:30.585Z,31.60
2022-08-03T09:29:06.935Z,31.15
2022-08-03T09:31:43.579Z,31.61
2022-08-03T09:34:11.262Z,31.68
2022-08-03T09:36:44.801Z,31.53
2022-08-03T09:39:12.347Z,31.19
2022-08-03T09:41:39.326Z,31.00
2022-08-03T09:44:06.049Z,30.94
2022-08-03T09:46:33.244Z,30.70
2022-08-03T09:49:18.053Z,30.75
2022-08-03T09:52:33.145Z,30.59
2022-08-03T09:54:31.690Z,31.24
2022-08-03T09:56:58.275Z,31.68
2022-08-03T09:59:31.706Z,31.89
2022-08-03T10:01:59.777Z,31.75
2022-08-03T10:04:26.746Z,31.55
2022-08-03T10:07:09.460Z,31.15
2022-08-03T10:09:36.482Z,30.90
2022-08-03T10:12:09.604Z,30.57
2022-08-03T10:14:37.113Z,30.56
2022-08-03T10:17:03.486Z,29.90
2022-08-03T10:19:29.839Z,29.72
2022-08-03T10:21:57.749Z,29.73
2022-08-03T10:24:25.235Z,30.21
2022-08-03T10:26:51.966Z,30.45
2022-08-03T10:29:20.555Z,30.93
2022-08-03T10:31:57.383Z,31.31
2022-08-03T10:34:25.520Z,31.97
2022-08-03T10:36:53.637Z,31.31
2022-08-03T10:39:24.703Z,30.57
2022-08-03T10:41:51.734Z,30.89
2022-08-03T10:44:20.140Z,31.17
2022-08-03T10:46:47.460Z,32.20
2022-08-03T10:49:14.960Z,32.28
2022-08-03T10:51:42.346Z,31.82
2022-08-03T10:54:28.607Z,31.96
2022-08-03T10:57:30.938Z,32.75
2022-08-03T11:00:01.951Z,33.05
2022-08-03T11:02:48.203Z,32.90
2022-08-03T11:05:28.921Z,33.13
2022-08-03T11:08:14.562Z,33.39
2022-08-03T11:10:40.862Z,33.33
2022-08-03T11:13:07.849Z,32.75
2022-08-03T11:15:34.866Z,32.60
2022-08-03T11:18:11.753Z,32.60
2022-08-03T11:20:54.575Z,32.47
2022-08-03T11:24:05.370Z,31.39
2022-08-03T11:26:27.533Z,31.36
2022-08-03T11:28:53.862Z,31.24
2022-08-03T11:31:48.119Z,31.47
2022-08-03T11:34:13.842Z,32.53
2022-08-03T11:36:58.771Z,32.02
2022-08-03T11:39:40.911Z,32.29
2022-08-03T11:42:22.782Z,33.13
2022-08-03T11:44:53.129Z,32.97
2022-08-03T11:47:23.983Z,32.88
2022-08-03T11:49:51.179Z,33.34
2022-08-03T11:52:18.060Z,33.40
2022-08-03T11:54:44.405Z,33.54
2022-08-03T11:57:10.933Z,33.24
2022-08-03T11:59:38.740Z,32.72
2022-08-03T12:02:08.378Z,32.34
2022-08-03T12:04:53.494Z,31.95
2022-08-03T12:08:02.616Z,31.98
2022-08-03T12:10:06.519Z,32.03
2022-08-03T12:12:32.869Z,32.51
2022-08-03T12:14:59.269Z,32.87
2022-08-03T12:17:33.162Z,33.00
2022-08-03T12:19:59.455Z,33.25
2022-08-03T12:22:32.731Z,33.06
2022-08-03T12:24:59.043Z,33.37
2022-08-03T12:27:26.418Z,34.06
2022-08-03T12:29:58.507Z,34.09
2022-08-03T12:32:28.520Z,34.11
2022-08-03T12:35:00.208Z,34.61
2022-08-03T12:37:27.300Z,34.55
2022-08-03T12:40:01.751Z,34.05
2022-08-03T12:42:36.054Z,34.37
2022-08-03T12:45:17.994Z,35.01
2022-08-03T12:47:51.185Z,35.43
2022-08-03T12:50:27.686Z,35.58
2022-08-03T12:52:54.141Z,35.38
2022-08-03T12:55:21.204Z,35.09
2022-08-03T12:57:47.571Z,34.22
2022-08-03T13:00:21.478Z,34.13
2022-08-03T13:03:41.940Z,33.61
2022-08-03T13:06:00.408Z,33.68
2022-08-03T13:08:27.139Z,33.40
2022-08-03T13:10:53.534Z,33.16
2022-08-03T13:13:38.001Z,33.01
2022-08-03T13:16:04.590Z,32.46
2022-08-03T13:18:31.059Z,32.94
2022-08-03T13:20:57.508Z,32.93
2022-08-03T13:23:23.947Z,33.34
2022-08-03T13:25:55.804Z,32.95
2022-08-03T13:28:22.531Z,33.14
2022-08-03T13:30:48.826Z,32.95
2022-08-03T13:33:16.101Z,32.66
2022-08-03T13:35:42.409Z,32.77
2022-08-03T13:38:08.734Z,33.30
2022-08-03T13:40:41.364Z,32.90
2022-08-03T13:43:08.252Z,32.88
2022-08-03T13:45:34.560Z,33.03
2022-08-03T13:48:01.369Z,32.87
2022-08-03T13:50:27.646Z,33.26
2022-08-03T13:52:53.936Z,33.26
2022-08-03T13:55:20.221Z,33.31
2022-08-03T13:58:03.616Z,33.05
2022-08-03T14:00:31.826Z,33.01
2022-08-03T14:03:05.069Z,33.02
2022-08-03T14:05:37.043Z,32.90
2022-08-03T14:08:05.632Z,32.69
2022-08-03T14:10:36.339Z,32.52
2022-08-03T14:13:03.349Z,32.54
2022-08-03T14:15:29.685Z,32.39
2022-08-03T14:17:58.386Z,32.67
2022-08-03T14:20:38.084Z,32.70
2022-08-03T14:23:11.812Z,32.53
2022-08-03T14:25:44.335Z,32.54
2022-08-03T14:28:19.118Z,32.24
2022-08-03T14:30:45.490Z,32.29
2022-08-03T14:33:11.844Z,32.45
2022-08-03T14:35:38.154Z,32.38
2022-08-03T14:38:04.446Z,32.50
2022-08-03T14:40:30.739Z,32.85
2022-08-03T14:42:57.286Z,32.43
2022-08-03T14:45:23.697Z,32.26
2022-08-03T14:50:33.982Z,31.85
2022-08-03T14:50:42.057Z,31.81
2022-08-03T14:53:10.596Z,32.00
2022-08-03T14:55:38.983Z,32.27
2022-08-03T14:58:19.552Z,32.26
2022-08-03T15:00:47.181Z,32.22
2022-08-03T15:03:16.590Z,32.08
2022-08-03T15:05:43.450Z,32.03
2022-08-03T15:08:09.747Z,32.41
2022-08-03T15:10:40.638Z,32.34
2022-08-03T15:13:11.618Z,32.33
2022-08-03T15:15:37.937Z,32.08
2022-08-03T15:18:04.450Z,31.98
2022-08-03T15:20:43.288Z,32.31
2022-08-03T15:23:10.067Z,32.17
2022-08-03T15:26:04.143Z,32.19
2022-08-03T15:28:22.663Z,32.10
2022-08-03T15:30:51.378Z,32.09
2022-08-03T15:33:18.240Z,32.11
2022-08-03T15:35:46.320Z,32.21
2022-08-03T15:38:12.790Z,32.34
2022-08-03T15:40:39.458Z,32.37
2022-08-03T15:43:05.776Z,32.32
2022-08-03T15:45:35.315Z,32.39
2022-08-03T15:48:02.974Z,32.29
2022-08-03T15:50:29.255Z,32.32
2022-08-03T15:52:56.065Z,32.44
2022-08-03T15:55:22.499Z,32.46
2022-08-03T15:59:04.855Z,32.34
2022-08-03T16:00:35.846Z,32.32
2022-08-03T16:03:02.189Z,32.31
2022-08-03T16:05:28.480Z,32.29
2022-08-03T16:08:03.087Z,32.42
2022-08-03T16:10:30.678Z,32.40
2022-08-03T16:12:58.738Z,32.45
2022-08-03T16:15:25.089Z,32.44
2022-08-03T16:17:51.392Z,32.54
2022-08-03T16:20:31.418Z,32.49
2022-08-03T16:23:01.498Z,32.52
2022-08-03T16:25:35.577Z,32.59
2022-08-03T16:28:07.581Z,32.64
2022-08-03T16:30:39.182Z,32.86
2022-08-03T16:33:05.517Z,32.90
2022-08-03T16:35:31.851Z,32.89
2022-08-03T16:37:58.199Z,32.95
2022-08-03T16:40:25.241Z,33.08
2022-08-03T16:42:51.546Z,33.15
2022-08-03T16:45:18.170Z,33.26
2022-08-03T16:47:44.488Z,33.31
2022-08-03T16:50:17.273Z,33.35
2022-08-03T16:52:47.296Z,33.50
2022-08-03T16:55:15.910Z,33.62
2022-08-03T16:57:58.276Z,33.68
2022-08-03T17:00:33.903Z,33.62
2022-08-03T17:03:04.211Z,33.31
2022-08-03T17:05:32.650Z,33.31
2022-08-03T17:08:14.018Z,33.27
2022-08-03T17:10:41.913Z,33.24
2022-08-03T17:13:11.674Z,33.21
2022-08-03T17:16:00.717Z,33.11
2022-08-03T17:18:32.308Z,32.93
2022-08-03T17:21:03.219Z,32.60
2022-08-03T17:23:39.163Z,32.56
2022-08-03T17:26:20.175Z,32.74
2022-08-03T17:28:57.463Z,32.73
2022-08-03T17:31:31.606Z,32.65
2022-08-03T17:34:00.282Z,32.40
2022-08-03T17:36:41.937Z,32.40
2022-08-03T17:39:14.005Z,32.23
2022-08-03T17:41:49.907Z,32.21
2022-08-03T17:44:33.013Z,32.11
2022-08-03T17:47:03.411Z,32.22
2022-08-03T17:49:29.796Z,32.31
2022-08-03T17:55:57.278Z,31.71
2022-08-03T17:58:04.894Z,31.62
2022-08-03T18:00:51.711Z,31.46
2022-08-03T18:03:27.754Z,31.39
2022-08-03T18:06:12.037Z,31.18
2022-08-03T18:08:46.098Z,31.25
2022-08-03T18:11:15.986Z,31.01
2022-08-03T18:13:57.641Z,30.81
2022-08-03T18:16:28.093Z,30.67
2022-08-03T18:18:56.889Z,30.49
2022-08-03T18:21:25.463Z,30.27
2022-08-03T18:23:52.283Z,30.04
2022-08-03T18:26:18.801Z,29.94
2022-08-03T18:28:45.096Z,29.77
2022-08-03T18:31:33.198Z,29.54
2022-08-03T18:34:16.272Z,29.37
2022-08-03T18:36:48.851Z,29.28
2022-08-03T18:39:15.244Z,29.19
2022-08-03T18:41:46.333Z,29.19
2022-08-03T18:44:46.497Z,29.05
2022-08-03T18:47:15.849Z,28.88
2022-08-03T18:49:55.117Z,28.73
2022-08-03T18:52:30.881Z,28.66
2022-08-03T18:55:21.442Z,28.51
2022-08-03T18:57:59.578Z,28.50
2022-08-03T19:00:42.737Z,28.35
2022-08-03T19:03:22.199Z,28.17
2022-08-03T19:06:05.916Z,28.26
2022-08-03T19:08:42.931Z,28.08
2022-08-03T19:11:11.018Z,28.01
2022-08-03T19:16:45.835Z,27.82
2022-08-03T19:19:14.477Z,27.75
2022-08-03T19:21:41.159Z,27.79
2022-08-03T19:24:10.092Z,27.51
2022-08-03T19:26:38.431Z,27.60
2022-08-03T19:29:06.676Z,27.45
2022-08-03T19:31:41.849Z,27.38
2022-08-03T19:34:26.067Z,27.25
2022-08-03T19:36:52.505Z,27.28
2022-08-03T19:39:18.912Z,26.94
2022-08-03T19:41:51.388Z,27.04
2022-08-03T19:44:24.310Z,26.49
2022-08-03T19:46:57.709Z,26.68
2022-08-03T19:49:26.189Z,26.52
2022-08-03T19:52:14.049Z,26.37
2022-08-03T19:54:53.997Z,26.25
2022-08-03T19:57:23.022Z,26.36
2022-08-03T19:59:50.752Z,26.01
2022-08-03T20:02:25.781Z,25.84
2022-08-03T20:04:55.231Z,25.94
2022-08-03T20:07:23.654Z,25.97
2022-08-03T20:09:54.606Z,25.76
2022-08-03T20:12:27.666Z,25.82
2022-08-03T20:14:56.256Z,25.74
2022-08-03T20:17:22.986Z,25.49
2022-08-03T20:20:09.368Z,25.34
2022-08-03T20:22:36.410Z,25.09
2022-08-03T20:25:10.566Z,25.15
2022-08-03T20:28:07.289Z,25.04
2022-08-03T20:30:33.435Z,25.04
2022-08-03T20:33:00.018Z,25.10
2022-08-03T20:35:26.952Z,24.97
2022-08-03T20:37:54.347Z,25.00
2022-08-03T20:40:21.911Z,24.68
2022-08-03T20:42:48.301Z,24.69
2022-08-03T20:45:59.233Z,24.70
2022-08-03T20:48:01.420Z,24.66
2022-08-03T20:50:31.408Z,24.47
2022-08-03T20:52:59.157Z,24.38
2022-08-03T20:55:48.005Z,24.59
2022-08-03T20:58:17.885Z,24.60
2022-08-03T21:00:46.363Z,24.53
2022-08-03T21:03:12.708Z,24.45
2022-08-03T21:05:51.056Z,24.34
2022-08-03T21:08:20.925Z,24.13
2022-08-03T21:10:47.677Z,24.02
2022-08-03T21:13:05.312Z,31.90
2022-08-03T21:13:09.190Z,27.84
2022-08-03T21:13:19.026Z,24.00
2022-08-03T21:16:14.715Z,24.01
2022-08-03T21:18:47.681Z,23.95
2022-08-03T21:21:16.281Z,23.91
2022-08-03T21:23:48.697Z,23.78
2022-08-03T21:26:16.733Z,23.66
2022-08-03T21:28:43.623Z,23.54
2022-08-03T21:31:10.358Z,23.67
2022-08-03T21:33:36.836Z,23.51
2022-08-03T21:36:03.494Z,23.57
2022-08-03T21:38:30.495Z,23.37
2022-08-03T21:40:57.147Z,23.28
2022-08-03T21:43:25.944Z,23.30
2022-08-03T21:45:57.691Z,23.24
2022-08-03T21:48:24.944Z,23.27
2022-08-03T21:50:51.738Z,23.23
2022-08-03T21:53:18.315Z,23.12
2022-08-03T21:55:47.062Z,23.08
2022-08-03T21:58:13.754Z,23.05
2022-08-03T22:00:42.563Z,22.83
2022-08-03T22:03:15.195Z,22.81
2022-08-03T22:05:44.281Z,22.79
2022-08-03T22:08:13.773Z,22.85
2022-08-03T22:10:40.927Z,22.85
2022-08-03T22:13:07.291Z,22.93
2022-08-03T22:15:33.750Z,22.88
2022-08-03T22:18:03.503Z,22.79
2022-08-03T22:20:30.127Z,22.76
2022-08-03T22:22:59.789Z,22.67
2022-08-03T22:25:29.016Z,22.66
2022-08-03T22:27:56.954Z,22.66
2022-08-03T22:30:24.420Z,22.56
2022-08-03T22:32:52.958Z,22.49
2022-08-03T22:35:20.561Z,22.53
2022-08-03T22:37:48.852Z,22.55
2022-08-03T22:40:15.923Z,22.66
2022-08-03T22:42:44.339Z,22.56
2022-08-03T22:45:10.648Z,22.51
2022-08-03T22:47:57.675Z,22.45
2022-08-03T22:50:33.393Z,22.49
2022-08-03T22:53:00.766Z,22.41
2022-08-03T22:55:27.522Z,22.35
2022-08-03T22:57:55.879Z,22.30
2022-08-03T23:00:22.767Z,22.33
2022-08-03T23:02:50.751Z,22.34
2022-08-03T23:06:00.517Z,22.33
2022-08-03T23:08:07.147Z,22.29
2022-08-03T23:10:34.419Z,22.28
2022-08-03T23:13:00.978Z,22.27
2022-08-03T23:15:29.624Z,22.26
2022-08-03T23:17:58.571Z,22.26
2022-08-03T23:20:29.491Z,22.24
2022-08-03T23:23:00.336Z,22.26
2022-08-03T23:25:26.675Z,22.18
2022-08-03T23:28:04.925Z,22.13
2022-08-03T23:30:34.373Z,22.10
2022-08-03T23:33:01.108Z,22.09
2022-08-03T23:36:20.006Z,22.04
2022-08-03T23:38:36.022Z,22.04
2022-08-03T23:41:03.138Z,22.10
2022-08-03T23:43:44.863Z,22.08
2022-08-03T23:46:18.376Z,21.92
2022-08-03T23:48:44.787Z,22.00
2022-08-03T23:51:17.082Z,21.93
2022-08-03T23:54:09.643Z,21.90
2022-08-03T23:56:35.895Z,21.90
2022-08-03T23:59:09.677Z,21.89
